createdAt,value
2023-04-18T00:01:25.226Z,17.69
2023-04-18T00:06:27.520Z,17.68
2023-04-18T00:11:30.427Z,17.70
2023-04-18T00:16:33.352Z,17.71
2023-04-18T00:21:37.409Z,17.67
2023-04-18T00:26:39.433Z,17.64
2023-04-18T00:31:41.491Z,17.63
2023-04-18T00:36:43.459Z,17.64
2023-04-18T00:41:45.713Z,17.64
2023-04-18T00:46:48.477Z,17.63
2023-04-18T00:51:51.800Z,17.63
2023-04-18T00:56:54.138Z,17.62
2023-04-18T01:01:56.250Z,17.67
2023-04-18T01:06:58.777Z,17.69
2023-04-18T01:12:02.212Z,17.69
2023-04-18T01:17:04.184Z,17.66
2023-04-18T01:22:07.283Z,17.66
2023-04-18T01:27:13.624Z,17.63
2023-04-18T01:32:17.861Z,17.65
2023-04-18T01:37:22.122Z,17.63
2023-04-18T01:42:24.253Z,17.62
2023-04-18T01:47:26.266Z,17.67
2023-04-18T01:52:28.514Z,17.68
2023-04-18T01:57:31.288Z,17.69
2023-04-18T02:02:33.513Z,17.64
2023-04-18T02:07:35.832Z,17.62
2023-04-18T02:12:37.937Z,17.62
2023-04-18T02:17:41.928Z,17.61
2023-04-18T02:22:44.480Z,17.62
2023-04-18T02:27:46.530Z,17.67
2023-04-18T02:32:52.303Z,17.68
2023-04-18T02:37:54.399Z,17.64
2023-04-18T02:42:56.421Z,17.62
2023-04-18T02:47:58.651Z,17.62
2023-04-18T02:53:00.698Z,17.60
2023-04-18T02:58:13.288Z,17.60
2023-04-18T03:03:27.285Z,17.62
2023-04-18T03:08:36.010Z,17.66
2023-04-18T03:13:38.383Z,17.66
2023-04-18T03:18:40.952Z,17.61
2023-04-18T03:23:43.097Z,17.60
2023-04-18T03:28:46.125Z,17.60
2023-04-18T03:33:49.379Z,17.57
2023-04-18T03:38:51.632Z,17.59
2023-04-18T03:43:53.858Z,17.56
2023-04-18T03:48:56.045Z,17.56
2023-04-18T03:53:58.339Z,17.58
2023-04-18T03:59:00.514Z,17.56
2023-04-18T04:04:03.366Z,17.55
2023-04-18T04:09:05.682Z,17.57
2023-04-18T04:14:08.378Z,17.55
2023-04-18T04:19:15.440Z,17.48
2023-04-18T04:24:38.861Z,17.56
2023-04-18T04:29:43.901Z,17.54
2023-04-18T04:34:47.715Z,17.55
2023-04-18T04:39:49.787Z,17.54
2023-04-18T04:45:10.855Z,17.57
2023-04-18T04:50:15.792Z,17.60
2023-04-18T04:55:19.170Z,17.57
2023-04-18T05:00:22.282Z,17.57
2023-04-18T05:05:25.622Z,17.56
2023-04-18T05:10:27.762Z,17.61
2023-04-18T05:15:30.335Z,17.63
2023-04-18T05:20:32.364Z,17.59
2023-04-18T05:25:34.547Z,17.57
2023-04-18T05:30:36.693Z,17.57
2023-04-18T05:35:38.960Z,17.55
2023-04-18T05:40:42.646Z,17.55
2023-04-18T05:45:44.701Z,17.55
2023-04-18T05:50:46.791Z,17.54
2023-04-18T05:55:49.123Z,17.52
2023-04-18T06:00:52.902Z,17.52
2023-04-18T06:05:55.054Z,17.52
2023-04-18T06:10:57.188Z,17.54
2023-04-18T06:16:00.777Z,17.57
2023-04-18T06:21:02.912Z,17.59
2023-04-18T06:26:05.119Z,17.56
2023-04-18T06:31:08.690Z,17.53
2023-04-18T06:36:10.782Z,17.52
2023-04-18T06:41:14.869Z,17.50
2023-04-18T06:46:17.015Z,17.52
2023-04-18T06:51:19.042Z,17.51
2023-04-18T06:56:21.385Z,17.52
2023-04-18T07:01:23.480Z,17.52
2023-04-18T07:06:26.447Z,17.56
2023-04-18T07:11:29.086Z,17.58
2023-04-18T07:16:31.250Z,17.54
2023-04-18T07:21:33.457Z,17.51
2023-04-18T07:26:35.792Z,17.53
2023-04-18T07:31:37.874Z,17.52
2023-04-18T07:36:41.045Z,17.52
2023-04-18T07:41:43.125Z,17.53
2023-04-18T07:46:45.342Z,17.52
2023-04-18T07:51:47.479Z,17.53
2023-04-18T07:56:49.530Z,17.54
2023-04-18T08:01:51.560Z,17.53
2023-04-18T08:06:53.872Z,17.52
2023-04-18T08:11:56.881Z,17.54
2023-04-18T08:16:58.871Z,17.56
2023-04-18T08:22:10.195Z,17.55
2023-04-18T08:27:12.446Z,17.55
2023-04-18T08:32:14.558Z,17.54
2023-04-18T08:37:16.772Z,17.53
2023-04-18T08:42:19.572Z,17.53
2023-04-18T08:47:21.770Z,17.53
2023-04-18T08:52:24.634Z,17.53
2023-04-18T08:57:31.218Z,17.55
2023-04-18T09:02:47.138Z,17.53
2023-04-18T09:07:51.203Z,17.54
2023-04-18T09:12:53.061Z,17.52
2023-04-18T09:18:00.314Z,17.57
2023-04-18T09:23:04.532Z,17.56
2023-04-18T09:28:27.197Z,17.54
2023-04-18T09:33:36.956Z,17.54
2023-04-18T09:38:42.232Z,17.55
2023-04-18T09:43:45.667Z,17.55
2023-04-18T09:48:47.761Z,17.59
2023-04-18T09:53:50.616Z,17.60
2023-04-18T09:59:01.822Z,17.58
2023-04-18T10:04:06.937Z,17.55
2023-04-18T10:09:10.301Z,17.55
2023-04-18T10:14:16.301Z,17.56
2023-04-18T10:19:29.757Z,17.54
2023-04-18T10:24:53.696Z,17.53
2023-04-18T10:29:56.322Z,17.55
2023-04-18T10:34:59.946Z,17.53
2023-04-18T10:40:06.793Z,17.54
2023-04-18T10:45:29.805Z,17.53
2023-04-18T10:50:31.822Z,17.56
2023-04-18T10:55:34.369Z,17.59
2023-04-18T11:00:36.580Z,17.58
2023-04-18T11:05:38.787Z,17.58
2023-04-18T11:10:41.319Z,17.53
2023-04-18T11:15:43.343Z,17.53
2023-04-18T11:20:50.085Z,17.56
2023-04-18T11:25:54.613Z,17.56
2023-04-18T11:30:59.473Z,17.58
2023-04-18T11:36:02.865Z,17.57
2023-04-18T11:41:04.934Z,17.58
2023-04-18T11:46:07.033Z,17.59
2023-04-18T11:51:33.235Z,17.59
2023-04-18T11:56:36.800Z,17.60
2023-04-18T12:01:39.014Z,17.58
2023-04-18T12:06:51.608Z,17.59
2023-04-18T12:12:04.334Z,17.58
2023-04-18T12:17:06.550Z,17.59
2023-04-18T12:22:09.807Z,17.60
2023-04-18T12:27:12.375Z,17.62
2023-04-18T12:32:14.408Z,17.61
2023-04-18T12:37:16.516Z,17.62
2023-04-18T12:42:18.757Z,17.60
2023-04-18T12:47:21.031Z,17.60
2023-04-18T12:52:23.234Z,17.63
2023-04-18T12:57:25.799Z,17.61
2023-04-18T13:02:29.528Z,17.63
2023-04-18T13:07:31.783Z,17.59
2023-04-18T13:12:33.777Z,17.58
2023-04-18T13:17:39.050Z,17.63
2023-04-18T13:22:42.544Z,17.64
2023-04-18T13:27:46.094Z,17.65
2023-04-18T13:32:48.268Z,17.66
2023-04-18T13:37:50.491Z,17.65
2023-04-18T13:42:52.426Z,17.65
2023-04-18T13:47:54.621Z,17.64
2023-04-18T13:52:56.803Z,17.57
2023-04-18T13:57:58.886Z,17.66
2023-04-18T14:03:01.525Z,17.66
2023-04-18T14:08:04.269Z,17.66
2023-04-18T14:13:06.473Z,17.68
2023-04-18T14:18:08.707Z,17.68
2023-04-18T14:23:11.175Z,17.67
2023-04-18T14:28:13.548Z,17.67
2023-04-18T14:33:15.562Z,17.69
2023-04-18T14:38:17.769Z,17.71
2023-04-18T14:43:19.863Z,17.71
2023-04-18T14:48:22.147Z,17.69
2023-04-18T14:53:25.000Z,17.71
2023-04-18T14:58:27.117Z,17.69
2023-04-18T15:03:29.626Z,17.71
2023-04-18T15:08:32.807Z,17.69
2023-04-18T15:13:35.357Z,17.70
2023-04-18T15:18:37.505Z,17.72
2023-04-18T15:23:39.655Z,17.70
2023-04-18T15:28:41.770Z,17.74
2023-04-18T15:33:43.894Z,17.72
2023-04-18T15:38:45.992Z,17.75
2023-04-18T15:43:48.299Z,17.74
2023-04-18T15:48:50.520Z,17.76
2023-04-18T15:53:52.649Z,17.76
2023-04-18T15:58:57.981Z,17.74
2023-04-18T16:04:00.298Z,17.77
2023-04-18T16:09:02.514Z,17.76
2023-04-18T16:14:04.592Z,17.77
2023-04-18T16:19:06.777Z,17.77
2023-04-18T16:24:08.916Z,17.78
2023-04-18T16:29:11.208Z,17.79
2023-04-18T16:34:14.748Z,17.80
2023-04-18T16:39:18.156Z,17.82
2023-04-18T16:44:20.273Z,17.79
2023-04-18T16:49:23.831Z,17.82
2023-04-18T16:54:26.043Z,17.83
2023-04-18T16:59:28.112Z,17.82
2023-04-18T17:04:30.388Z,17.82
2023-04-18T17:09:32.463Z,17.85
2023-04-18T17:14:35.078Z,17.84
2023-04-18T17:19:37.201Z,17.86
2023-04-18T17:24:39.313Z,17.86
2023-04-18T17:29:42.085Z,17.87
2023-04-18T17:34:44.294Z,17.87
2023-04-18T17:39:46.464Z,17.89
2023-04-18T17:44:48.649Z,17.89
2023-04-18T17:49:50.694Z,17.88
2023-04-18T17:54:52.687Z,17.90
2023-04-18T17:59:54.849Z,17.90
2023-04-18T18:04:57.738Z,17.91
2023-04-18T18:09:59.775Z,17.92
2023-04-18T18:15:02.123Z,17.92
2023-04-18T18:20:09.891Z,17.93
2023-04-18T18:25:12.148Z,17.93
2023-04-18T18:30:14.393Z,17.94
2023-04-18T18:35:16.493Z,17.94
2023-04-18T18:40:18.654Z,17.93
2023-04-18T18:45:21.853Z,17.93
2023-04-18T18:50:24.142Z,17.93
2023-04-18T18:55:26.185Z,17.94
2023-04-18T19:00:28.480Z,17.95
2023-04-18T19:05:30.552Z,17.94
2023-04-18T19:10:33.169Z,17.93
2023-04-18T19:15:35.433Z,17.93
2023-04-18T19:20:40.450Z,17.92
2023-04-18T19:25:42.809Z,17.93
2023-04-18T19:30:45.519Z,17.94
2023-04-18T19:35:47.651Z,17.94
2023-04-18T19:40:49.717Z,17.94
2023-04-18T19:45:53.210Z,17.91
2023-04-18T19:50:57.625Z,17.93
2023-04-18T19:55:59.856Z,17.93
2023-04-18T20:01:02.353Z,17.92
2023-04-18T20:06:05.857Z,17.93
2023-04-18T20:11:09.704Z,17.93
2023-04-18T20:16:12.436Z,17.92
2023-04-18T20:21:14.474Z,17.90
2023-04-18T20:26:16.663Z,17.94
2023-04-18T20:31:18.758Z,17.94
2023-04-18T20:36:20.923Z,17.91
2023-04-18T20:41:24.380Z,17.92
2023-04-18T20:46:26.632Z,17.86
2023-04-18T20:51:29.768Z,17.84
2023-04-18T20:56:32.336Z,17.93
2023-04-18T21:01:36.160Z,17.93
2023-04-18T21:06:39.234Z,17.93
2023-04-18T21:11:41.487Z,17.92
2023-04-18T21:16:43.901Z,17.96
2023-04-18T21:21:46.032Z,17.96
2023-04-18T21:26:48.100Z,17.95
2023-04-18T21:31:50.428Z,17.95
2023-04-18T21:36:52.531Z,17.92
2023-04-18T21:41:54.612Z,17.95
2023-04-18T21:46:57.332Z,17.95
2023-04-18T21:51:59.588Z,17.95
2023-04-18T21:57:02.743Z,17.93
2023-04-18T22:02:05.698Z,17.93
2023-04-18T22:07:07.805Z,17.93
2023-04-18T22:12:09.952Z,17.92
2023-04-18T22:17:12.039Z,17.93
2023-04-18T22:22:14.090Z,17.95
2023-04-18T22:27:16.271Z,17.96
2023-04-18T22:32:18.392Z,17.94
2023-04-18T22:37:20.437Z,17.91
2023-04-18T22:42:22.465Z,17.92
2023-04-18T22:47:24.599Z,17.89
2023-04-18T22:52:26.676Z,17.93
2023-04-18T22:57:28.903Z,17.93
2023-04-18T23:02:31.213Z,17.94
2023-04-18T23:07:33.452Z,17.92
2023-04-18T23:12:35.549Z,17.92
2023-04-18T23:17:37.700Z,17.93
2023-04-18T23:22:39.931Z,17.94
2023-04-18T23:27:42.089Z,17.92
2023-04-18T23:32:44.191Z,17.91
2023-04-18T23:37:46.426Z,17.92
2023-04-18T23:42:48.753Z,17.94
2023-04-18T23:47:51.219Z,17.93
2023-04-18T23:52:53.325Z,17.89
2023-04-18T23:57:55.422Z,17.90
